createdAt,value
2023-03-16T00:00:58.533Z,101440.91
2023-03-16T00:03:30.402Z,101440.06
2023-03-16T00:05:58.786Z,101442.94
2023-03-16T00:08:26.732Z,101442.94
2023-03-16T00:10:54.934Z,101441.06
2023-03-16T00:13:24.847Z,101440.47
2023-03-16T00:15:54.272Z,101437.75
2023-03-16T00:18:22.277Z,101437.53
2023-03-16T00:20:53.259Z,101422.06
2023-03-16T00:23:27.438Z,101419.78
2023-03-16T00:25:55.890Z,101411.44
2023-03-16T00:28:23.897Z,101415.81
2023-03-16T00:30:52.221Z,101416.03
2023-03-16T00:33:21.542Z,101414.16
2023-03-16T00:35:50.325Z,101410.38
2023-03-16T00:38:18.594Z,101413.31
2023-03-16T00:40:47.086Z,101416.88
2023-03-16T00:43:18.656Z,101412.66
2023-03-16T00:45:46.658Z,101418.94
2023-03-16T00:48:14.564Z,101410.78
2023-03-16T00:50:44.315Z,101412.66
2023-03-16T00:53:12.179Z,101417.06
2023-03-16T00:55:40.105Z,101419.13
2023-03-16T00:58:08.010Z,101413.69
2023-03-16T01:00:36.468Z,101412.00
2023-03-16T01:03:04.599Z,101412.00
2023-03-16T01:05:33.537Z,101418.69
2023-03-16T01:08:04.292Z,101419.53
2023-03-16T01:10:32.532Z,101409.69
2023-03-16T01:13:00.509Z,101399.69
2023-03-16T01:15:28.393Z,101395.09
2023-03-16T01:17:56.276Z,101393.00
2023-03-16T01:20:24.481Z,101382.38
2023-03-16T01:22:52.381Z,101386.75
2023-03-16T01:25:22.333Z,101374.00
2023-03-16T01:27:50.261Z,101376.09
2023-03-16T01:30:18.547Z,101376.94
2023-03-16T01:32:46.509Z,101373.19
2023-03-16T01:35:14.677Z,101370.66
2023-03-16T01:37:42.590Z,101360.66
2023-03-16T01:40:12.629Z,101364.22
2023-03-16T01:42:47.690Z,101357.09
2023-03-16T01:45:53.864Z,101361.69
2023-03-16T01:48:24.675Z,101349.16
2023-03-16T01:50:53.486Z,101343.72
2023-03-16T01:53:22.068Z,101334.53
2023-03-16T01:55:50.077Z,101341.00
2023-03-16T01:58:19.375Z,101339.78
2023-03-16T02:00:47.594Z,101337.06
2023-03-16T02:03:16.600Z,101328.91
2023-03-16T02:05:45.448Z,101321.56
2023-03-16T02:08:13.513Z,101328.06
2023-03-16T02:10:41.696Z,101333.50
2023-03-16T02:13:09.836Z,101332.66
2023-03-16T02:15:39.168Z,101334.53
2023-03-16T02:18:07.835Z,101331.81
2023-03-16T02:20:38.953Z,101320.97
2023-03-16T02:23:07.371Z,101321.81
2023-03-16T02:25:40.058Z,101318.06
2023-03-16T02:28:11.722Z,101308.03
2023-03-16T02:31:14.917Z,101305.34
2023-03-16T02:33:42.901Z,101306.38
2023-03-16T02:36:11.609Z,101299.25
2023-03-16T02:38:39.531Z,101303.84
2023-03-16T02:41:11.972Z,101300.28
2023-03-16T02:43:41.421Z,101298.59
2023-03-16T02:46:09.384Z,101288.59
2023-03-16T02:48:42.951Z,101289.44
2023-03-16T02:51:11.349Z,101286.72
2023-03-16T02:53:39.265Z,101293.19
2023-03-16T02:56:07.637Z,101291.31
2023-03-16T02:58:35.512Z,101293.81
2023-03-16T03:01:03.740Z,101279.41
2023-03-16T03:03:34.307Z,101276.50
2023-03-16T03:06:03.697Z,101270.63
2023-03-16T03:08:32.883Z,101273.97
2023-03-16T03:11:01.185Z,101256.81
2023-03-16T03:13:29.065Z,101275.03
2023-03-16T03:15:57.054Z,101277.72
2023-03-16T03:18:25.584Z,101265.19
2023-03-16T03:20:53.840Z,101261.63
2023-03-16T03:23:23.661Z,101265.19
2023-03-16T03:25:51.575Z,101256.03
2023-03-16T03:28:19.477Z,101269.41
2023-03-16T03:30:47.364Z,101266.03
2023-03-16T03:33:15.324Z,101260.19
2023-03-16T03:35:43.291Z,101262.28
2023-03-16T03:38:11.614Z,101261.44
2023-03-16T03:40:42.257Z,101258.72
2023-03-16T03:43:10.291Z,101250.59
2023-03-16T03:45:38.211Z,101264.16
2023-03-16T03:48:06.820Z,101266.25
2023-03-16T03:50:35.031Z,101258.69
2023-03-16T03:53:02.914Z,101263.75
2023-03-16T03:55:30.833Z,101261.03
2023-03-16T03:58:00.399Z,101262.47
2023-03-16T04:00:28.955Z,101267.06
2023-03-16T04:02:57.220Z,101262.72
2023-03-16T04:05:27.426Z,101253.50
2023-03-16T04:07:57.509Z,101260.59
2023-03-16T04:10:26.184Z,101252.22
2023-03-16T04:12:54.320Z,101251.84
2023-03-16T04:15:23.625Z,101255.41
2023-03-16T04:17:52.644Z,101248.50
2023-03-16T04:20:23.478Z,101228.59
2023-03-16T04:22:58.296Z,101223.59
2023-03-16T04:25:26.826Z,101242.22
2023-03-16T04:27:54.936Z,101232.19
2023-03-16T04:30:24.864Z,101229.50
2023-03-16T04:32:53.302Z,101225.75
2023-03-16T04:35:22.200Z,101226.59
2023-03-16T04:37:50.136Z,101228.44
2023-03-16T04:40:19.488Z,101220.31
2023-03-16T04:42:47.769Z,101177.19
2023-03-16T04:45:15.842Z,101213.84
2023-03-16T04:47:45.187Z,101203.84
2023-03-16T04:50:13.708Z,101214.69
2023-03-16T04:52:41.659Z,101220.13
2023-03-16T04:55:09.962Z,101220.94
2023-03-16T04:57:37.846Z,101208.19
2023-03-16T05:00:11.741Z,101182.47
2023-03-16T05:02:39.690Z,101219.06
2023-03-16T05:05:09.818Z,101208.19
2023-03-16T05:07:37.840Z,101210.06
2023-03-16T05:10:06.699Z,101205.47
2023-03-16T05:12:34.587Z,101210.91
2023-03-16T05:15:02.564Z,101210.06
2023-03-16T05:17:30.429Z,101196.09
2023-03-16T05:19:58.626Z,101205.47
2023-03-16T05:22:27.970Z,101210.91
2023-03-16T05:24:55.924Z,101206.31
2023-03-16T05:27:24.029Z,101114.63
2023-03-16T05:29:52.370Z,101206.31
2023-03-16T05:32:20.324Z,101190.63
2023-03-16T05:34:48.226Z,101191.91
2023-03-16T05:37:16.180Z,101201.94
2023-03-16T05:39:45.763Z,101204.44
2023-03-16T05:42:13.671Z,101202.16
2023-03-16T05:44:41.775Z,101199.03
2023-03-16T05:47:09.807Z,101203.63
2023-03-16T05:49:37.992Z,101200.91
2023-03-16T05:52:06.169Z,101208.19
2023-03-16T05:54:34.284Z,101212.59
2023-03-16T05:57:03.587Z,101209.88
2023-03-16T05:59:31.835Z,101219.69
2023-03-16T06:01:59.747Z,101215.31
2023-03-16T06:04:27.753Z,101214.22
2023-03-16T06:06:55.671Z,101224.28
2023-03-16T06:09:23.839Z,101191.84
2023-03-16T06:11:51.829Z,101204.41
2023-03-16T06:14:21.275Z,101139.78
2023-03-16T06:16:49.204Z,101202.13
2023-03-16T06:19:17.389Z,101214.47
2023-03-16T06:21:45.556Z,101212.59
2023-03-16T06:24:13.554Z,101219.91
2023-03-16T06:26:41.753Z,101219.91
2023-03-16T06:29:11.930Z,101209.88
2023-03-16T06:31:41.227Z,101210.72
2023-03-16T06:34:09.405Z,101213.44
2023-03-16T06:36:39.722Z,101217.41
2023-03-16T06:39:07.974Z,101221.38
2023-03-16T06:41:35.861Z,101217.63
2023-03-16T06:44:03.795Z,101218.66
2023-03-16T06:46:33.055Z,101216.78
2023-03-16T06:49:02.720Z,101175.75
2023-03-16T06:51:31.375Z,101217.81
2023-03-16T06:53:59.328Z,101229.53
2023-03-16T06:56:27.950Z,101232.25
2023-03-16T06:58:56.364Z,101232.25
2023-03-16T07:01:24.345Z,101222.84
2023-03-16T07:03:52.498Z,101237.66
2023-03-16T07:06:21.879Z,101234.13
2023-03-16T07:08:50.068Z,101230.56
2023-03-16T07:11:18.088Z,101236.63
2023-03-16T07:13:48.730Z,101236.63
2023-03-16T07:16:16.694Z,101237.66
2023-03-16T07:18:45.232Z,101237.66
2023-03-16T07:21:13.197Z,101231.41
2023-03-16T07:23:42.685Z,101234.94
2023-03-16T07:26:12.042Z,101226.59
2023-03-16T07:28:40.018Z,101235.16
2023-03-16T07:31:09.444Z,101234.13
2023-03-16T07:33:37.496Z,101238.50
2023-03-16T07:36:06.027Z,101248.53
2023-03-16T07:38:34.114Z,101241.22
2023-03-16T07:41:04.721Z,101242.91
2023-03-16T07:43:32.677Z,101236.81
2023-03-16T07:46:01.542Z,101179.06
2023-03-16T07:48:33.970Z,101237.66
2023-03-16T07:51:06.023Z,101241.22
2023-03-16T07:53:34.173Z,101236.81
2023-03-16T07:56:02.299Z,101237.47
2023-03-16T07:58:31.528Z,101191.41
2023-03-16T08:01:00.354Z,101231.22
2023-03-16T08:03:28.704Z,101230.38
2023-03-16T08:05:56.813Z,101221.19
2023-03-16T08:08:24.760Z,101223.91
2023-03-16T08:10:55.073Z,101215.75
2023-03-16T08:13:24.521Z,101227.44
2023-03-16T08:15:58.529Z,101205.25
2023-03-16T08:18:26.951Z,101228.28
2023-03-16T08:20:55.170Z,101229.34
2023-03-16T08:23:24.158Z,101222.84
2023-03-16T08:25:53.584Z,101218.25
2023-03-16T08:28:22.061Z,101220.13
2023-03-16T08:30:50.993Z,101214.69
2023-03-16T08:33:22.960Z,101215.53
2023-03-16T08:35:51.584Z,101208.44
2023-03-16T08:38:20.293Z,101209.50
2023-03-16T08:40:48.859Z,101199.22
2023-03-16T08:43:17.158Z,101209.28
2023-03-16T08:45:46.105Z,101218.25
2023-03-16T08:48:14.828Z,101215.53
2023-03-16T08:50:44.508Z,101212.81
2023-03-16T08:53:13.618Z,101222.66
2023-03-16T08:55:41.812Z,101219.09
2023-03-16T08:58:10.461Z,101214.50
2023-03-16T09:00:38.781Z,101216.38
2023-03-16T09:03:06.831Z,101204.88
2023-03-16T09:05:34.774Z,101219.94
2023-03-16T09:08:06.217Z,101202.16
2023-03-16T09:10:35.347Z,101211.78
2023-03-16T09:13:03.228Z,101214.50
2023-03-16T09:15:31.499Z,101214.50
2023-03-16T09:18:00.672Z,101222.44
2023-03-16T09:20:32.954Z,101216.19
2023-03-16T09:23:01.226Z,101172.47
2023-03-16T09:25:31.094Z,101199.91
2023-03-16T09:27:59.290Z,101197.38
2023-03-16T09:30:28.337Z,101197.19
2023-03-16T09:32:56.809Z,101200.75
2023-03-16T09:35:25.197Z,101203.44
2023-03-16T09:38:05.531Z,101199.69
2023-03-16T09:40:36.157Z,101191.56
2023-03-16T09:43:12.127Z,101185.28
2023-03-16T09:45:43.029Z,101177.16
2023-03-16T09:48:11.034Z,101177.16
2023-03-16T09:50:48.076Z,101141.56
2023-03-16T09:53:20.083Z,101162.75
2023-03-16T09:55:51.118Z,101167.94
2023-03-16T09:58:20.406Z,101163.13
2023-03-16T10:00:52.846Z,101148.72
2023-03-16T10:03:29.745Z,101146.84
2023-03-16T10:06:00.897Z,101156.28
2023-03-16T10:08:31.801Z,101137.25
2023-03-16T10:11:26.814Z,101106.69
2023-03-16T10:13:56.376Z,101127.84
2023-03-16T10:16:27.109Z,101158.75
2023-03-16T10:19:00.680Z,101153.34
2023-03-16T10:21:30.113Z,101153.34
2023-03-16T10:23:58.835Z,101146.03
2023-03-16T10:26:32.782Z,101145.19
2023-03-16T10:29:01.147Z,101134.09
2023-03-16T10:31:29.410Z,101138.06
2023-03-16T10:33:59.557Z,101140.59
2023-03-16T10:36:30.761Z,101145.19
2023-03-16T10:38:59.739Z,101143.31
2023-03-16T10:41:31.530Z,101146.03
2023-03-16T10:44:01.882Z,101134.13
2023-03-16T10:46:29.970Z,101122.44
2023-03-16T10:49:01.291Z,101111.78
2023-03-16T10:51:30.995Z,101057.63
2023-03-16T10:54:15.760Z,101109.72
2023-03-16T10:56:46.071Z,101110.53
2023-03-16T10:59:17.189Z,101108.44
2023-03-16T11:01:50.087Z,101104.28
2023-03-16T11:04:19.169Z,101103.25
2023-03-16T11:06:53.021Z,101084.22
2023-03-16T11:09:22.844Z,101085.91
2023-03-16T11:11:52.323Z,101084.00
2023-03-16T11:14:24.866Z,101084.25
2023-03-16T11:16:56.860Z,101094.06
2023-03-16T11:19:26.021Z,101085.06
2023-03-16T11:21:55.877Z,100971.13
2023-03-16T11:24:25.606Z,101008.38
2023-03-16T11:26:57.161Z,101083.19
2023-03-16T11:29:28.482Z,100997.31
2023-03-16T11:31:57.638Z,101066.06
2023-03-16T11:34:28.626Z,101070.66
2023-03-16T11:36:56.861Z,101050.81
2023-03-16T11:39:37.660Z,101041.63
2023-03-16T11:42:15.741Z,101051.66
2023-03-16T11:44:45.365Z,101061.69
2023-03-16T11:47:35.127Z,101062.28
2023-03-16T11:50:08.635Z,101051.44
2023-03-16T11:52:48.023Z,101047.91
2023-03-16T11:55:31.380Z,100952.22
2023-03-16T11:58:13.007Z,101038.69
2023-03-16T12:00:45.007Z,101037.66
2023-03-16T12:03:34.693Z,101041.41
2023-03-16T12:06:13.608Z,101035.97
2023-03-16T12:08:57.685Z,100995.69
2023-03-16T12:11:26.589Z,101010.28
2023-03-16T12:14:10.170Z,101018.06
2023-03-16T12:16:49.164Z,101013.44
2023-03-16T12:19:21.944Z,100998.81
2023-03-16T12:21:53.313Z,100993.38
2023-03-16T12:24:22.612Z,100991.50
2023-03-16T12:26:50.676Z,100981.50
2023-03-16T12:29:22.900Z,100978.78
2023-03-16T12:31:52.143Z,100979.63
2023-03-16T12:34:25.686Z,100945.56
2023-03-16T12:37:12.938Z,100960.63
2023-03-16T12:39:55.406Z,100957.91
2023-03-16T12:42:34.645Z,100857.28
2023-03-16T12:45:04.528Z,100925.34
2023-03-16T12:47:34.000Z,100938.91
2023-03-16T12:50:07.268Z,100947.88
2023-03-16T12:52:42.251Z,100914.91
2023-03-16T12:55:14.749Z,100935.34
2023-03-16T12:57:43.440Z,100931.19
2023-03-16T13:00:14.385Z,100842.47
2023-03-16T13:02:44.211Z,100917.38
2023-03-16T13:05:13.100Z,100924.28
2023-03-16T13:07:47.956Z,100881.50
2023-03-16T13:10:16.528Z,100866.69
2023-03-16T13:12:46.229Z,100903.81
2023-03-16T13:15:27.523Z,100910.72
2023-03-16T13:18:05.595Z,100905.28
2023-03-16T13:20:34.267Z,100911.56
2023-03-16T13:23:10.549Z,100854.59
2023-03-16T13:25:43.975Z,100896.31
2023-03-16T13:28:14.092Z,100881.25
2023-03-16T13:30:47.185Z,100871.66
2023-03-16T13:33:20.483Z,100870.84
2023-03-16T13:35:49.163Z,100872.72
2023-03-16T13:38:17.550Z,100877.94
2023-03-16T13:40:49.205Z,100868.94
2023-03-16T13:43:17.656Z,100861.66
2023-03-16T13:45:47.022Z,100861.66
2023-03-16T13:48:15.272Z,100808.84
2023-03-16T13:50:44.517Z,100845.34
2023-03-16T13:53:19.078Z,100809.06
2023-03-16T13:55:48.012Z,100828.22
2023-03-16T13:58:21.805Z,100810.28
2023-03-16T14:00:51.214Z,100822.81
2023-03-16T14:03:21.901Z,100831.78
2023-03-16T14:05:49.847Z,100823.63
2023-03-16T14:08:18.221Z,100806.53
2023-03-16T14:10:46.889Z,100812.78
2023-03-16T14:13:25.613Z,100800.84
2023-03-16T14:15:56.467Z,100801.94
2023-03-16T14:18:27.060Z,100800.00
2023-03-16T14:20:56.313Z,100782.91
2023-03-16T14:23:25.447Z,100779.13
2023-03-16T14:25:55.891Z,100772.88
2023-03-16T14:28:29.968Z,100731.00
2023-03-16T14:31:06.108Z,100770.16
2023-03-16T14:33:34.951Z,100762.44
2023-03-16T14:36:10.888Z,100764.72
2023-03-16T14:38:40.627Z,100760.13
2023-03-16T14:41:17.267Z,100757.41
2023-03-16T14:43:47.472Z,100758.25
2023-03-16T14:46:19.069Z,100757.41
2023-03-16T14:48:46.966Z,100760.13
2023-03-16T14:51:15.007Z,100710.97
2023-03-16T14:53:42.917Z,100750.09
2023-03-16T14:56:12.108Z,100757.41
2023-03-16T14:58:40.078Z,100752.81
2023-03-16T15:01:08.263Z,100748.22
2023-03-16T15:03:38.028Z,100744.69
2023-03-16T15:06:06.682Z,100749.06
2023-03-16T15:08:37.053Z,100734.88
2023-03-16T15:11:06.217Z,100628.88
2023-03-16T15:13:52.868Z,100731.09
2023-03-16T15:16:21.824Z,100734.66
2023-03-16T15:18:51.920Z,100732.16
2023-03-16T15:21:21.386Z,100731.34
2023-03-16T15:23:49.256Z,100735.50
2023-03-16T15:26:18.163Z,100720.25
2023-03-16T15:28:46.097Z,100728.41
2023-03-16T15:31:14.452Z,100730.28
2023-03-16T15:33:42.700Z,100730.06
2023-03-16T15:36:15.558Z,100734.66
2023-03-16T15:38:44.908Z,100740.91
2023-03-16T15:41:13.094Z,100735.50
2023-03-16T15:43:41.011Z,100721.91
2023-03-16T15:46:08.935Z,100721.09
2023-03-16T15:48:36.978Z,100712.94
2023-03-16T15:51:07.665Z,100705.84
2023-03-16T15:53:38.600Z,100707.50
2023-03-16T15:56:07.695Z,100716.50
2023-03-16T15:58:36.301Z,100700.41
2023-03-16T16:01:05.633Z,100670.25
2023-03-16T16:03:33.785Z,100692.91
2023-03-16T16:06:02.188Z,100682.25
2023-03-16T16:08:30.178Z,100630.66
2023-03-16T16:11:01.531Z,100682.25
2023-03-16T16:13:43.694Z,100679.53
2023-03-16T16:16:13.335Z,100685.78
2023-03-16T16:18:41.568Z,100674.13
2023-03-16T16:21:15.519Z,100679.53
2023-03-16T16:23:43.827Z,100669.53
2023-03-16T16:26:20.015Z,100666.81
2023-03-16T16:28:48.212Z,100670.56
2023-03-16T16:31:16.125Z,100664.28
2023-03-16T16:33:44.122Z,100666.19
2023-03-16T16:36:15.163Z,100654.09
2023-03-16T16:38:43.065Z,100661.56
2023-03-16T16:41:11.554Z,100639.28
2023-03-16T16:43:42.477Z,100610.59
2023-03-16T16:46:14.196Z,100658.84
2023-03-16T16:48:44.222Z,100659.69
2023-03-16T16:51:16.520Z,100655.09
2023-03-16T16:53:44.475Z,100643.88
2023-03-16T16:56:13.753Z,100661.56
2023-03-16T16:58:43.236Z,100666.19
2023-03-16T17:01:14.279Z,100606.44
2023-03-16T17:03:42.288Z,100621.19
2023-03-16T17:06:14.125Z,100647.81
2023-03-16T17:08:42.410Z,100653.44
2023-03-16T17:11:14.200Z,100656.16
2023-03-16T17:13:44.042Z,100623.69
2023-03-16T17:16:15.400Z,100658.84
2023-03-16T17:18:44.977Z,100664.28
2023-03-16T17:21:17.147Z,100664.28
2023-03-16T17:23:45.081Z,100651.78
2023-03-16T17:26:15.975Z,100664.28
2023-03-16T17:28:46.999Z,100660.53
2023-03-16T17:31:17.511Z,100660.31
2023-03-16T17:33:45.406Z,100663.03
2023-03-16T17:36:15.523Z,100661.81
2023-03-16T17:38:46.142Z,100583.13
2023-03-16T17:41:21.453Z,100633.94
2023-03-16T17:43:54.500Z,100670.56
2023-03-16T17:46:23.934Z,100672.44
2023-03-16T17:48:52.983Z,100680.56
2023-03-16T17:51:21.805Z,100674.53
2023-03-16T17:53:49.816Z,100684.13
2023-03-16T17:56:19.380Z,100673.50
2023-03-16T17:58:49.555Z,100687.06
2023-03-16T18:01:20.157Z,100675.16
2023-03-16T18:03:49.413Z,100681.41
2023-03-16T18:06:21.337Z,100684.97
2023-03-16T18:08:49.546Z,100690.38
2023-03-16T18:11:19.284Z,100694.16
2023-03-16T18:13:47.329Z,100689.56
2023-03-16T18:16:19.985Z,100696.84
2023-03-16T18:18:48.125Z,100690.63
2023-03-16T18:21:19.453Z,100699.56
2023-03-16T18:23:47.458Z,100696.84
2023-03-16T18:26:15.401Z,100695.22
2023-03-16T18:28:43.857Z,100691.66
2023-03-16T18:31:21.534Z,100679.97
2023-03-16T18:33:50.636Z,100688.94
2023-03-16T18:36:19.821Z,100653.16
2023-03-16T18:38:49.084Z,100688.13
2023-03-16T18:41:17.845Z,100690.84
2023-03-16T18:43:45.837Z,100697.94
2023-03-16T18:46:25.620Z,100678.13
2023-03-16T18:48:54.034Z,100644.38
2023-03-16T18:51:21.999Z,100657.72
2023-03-16T18:53:50.078Z,100666.44
2023-03-16T18:56:19.774Z,100678.13
2023-03-16T18:58:48.389Z,100680.81
2023-03-16T19:01:26.421Z,100673.31
2023-03-16T19:03:58.323Z,100680.81
2023-03-16T19:06:29.640Z,100677.25
2023-03-16T19:09:02.325Z,100664.81
2023-03-16T19:11:30.357Z,100675.38
2023-03-16T19:13:58.268Z,100665.00
2023-03-16T19:16:27.612Z,100690.84
2023-03-16T19:18:55.870Z,100687.28
2023-03-16T19:21:23.945Z,100677.47
2023-03-16T19:23:56.051Z,100683.53
2023-03-16T19:26:24.031Z,100674.75
2023-03-16T19:28:52.166Z,100684.38
2023-03-16T19:31:21.788Z,100677.25
2023-03-16T19:33:51.971Z,100683.53
2023-03-16T19:36:21.072Z,100676.22
2023-03-16T19:38:50.977Z,100678.94
2023-03-16T19:41:23.386Z,100676.25
2023-03-16T19:43:51.780Z,100692.50
2023-03-16T19:46:19.862Z,100679.97
2023-03-16T19:48:47.792Z,100689.78
2023-03-16T19:51:17.998Z,100678.09
2023-03-16T19:53:46.064Z,100678.09
2023-03-16T19:56:15.347Z,100666.88
2023-03-16T19:58:44.085Z,100643.50
2023-03-16T20:01:17.540Z,100649.97
2023-03-16T20:03:46.444Z,100651.81
2023-03-16T20:06:16.700Z,100662.66
2023-03-16T20:08:45.158Z,100665.38
2023-03-16T20:11:17.895Z,100653.44
2023-03-16T20:13:46.781Z,100646.34
2023-03-16T20:16:21.423Z,100644.47
2023-03-16T20:18:49.990Z,100643.66
2023-03-16T20:21:19.304Z,100634.88
2023-03-16T20:23:47.269Z,100634.66
2023-03-16T20:26:18.849Z,100625.69
2023-03-16T20:28:48.367Z,100614.84
2023-03-16T20:31:18.914Z,100624.00
2023-03-16T20:33:46.998Z,100619.44
2023-03-16T20:36:14.936Z,100615.03
2023-03-16T20:38:44.288Z,100622.13
2023-03-16T20:41:17.763Z,100616.72
2023-03-16T20:43:45.817Z,100612.13
2023-03-16T20:46:17.314Z,100615.88
2023-03-16T20:48:45.284Z,100605.84
2023-03-16T20:51:16.366Z,100607.94
2023-03-16T20:53:46.589Z,100605.84
2023-03-16T20:56:16.670Z,100590.88
2023-03-16T20:58:45.734Z,100550.50
2023-03-16T21:01:17.679Z,100611.28
2023-03-16T21:03:47.439Z,100589.56
2023-03-16T21:06:22.312Z,100577.53
2023-03-16T21:08:52.589Z,100573.75
2023-03-16T21:11:23.142Z,100564.78
2023-03-16T21:13:51.112Z,100586.84
2023-03-16T21:16:20.048Z,100553.94
2023-03-16T21:18:49.439Z,100573.28
2023-03-16T21:21:17.921Z,100570.56
2023-03-16T21:23:46.116Z,100572.44
2023-03-16T21:26:17.459Z,100442.03
2023-03-16T21:28:45.540Z,100531.22
2023-03-16T21:31:19.516Z,100564.31
2023-03-16T21:33:48.388Z,100557.00
2023-03-16T21:36:18.215Z,100564.31
2023-03-16T21:38:46.169Z,100553.44
2023-03-16T21:41:14.919Z,100542.59
2023-03-16T21:43:44.493Z,100534.44
2023-03-16T21:46:16.101Z,100547.81
2023-03-16T21:48:44.641Z,100539.66
2023-03-16T21:51:16.150Z,100529.84
2023-03-16T21:53:44.853Z,100529.47
2023-03-16T21:56:15.433Z,100536.94
2023-03-16T21:58:44.835Z,100529.84
2023-03-16T22:01:22.423Z,100494.06
2023-03-16T22:03:53.401Z,100516.28
2023-03-16T22:06:21.714Z,100516.69
2023-03-16T22:08:51.202Z,100496.56
2023-03-16T22:11:20.181Z,100522.53
2023-03-16T22:13:49.569Z,100517.13
2023-03-16T22:16:18.677Z,100524.41
2023-03-16T22:18:47.068Z,100512.38
2023-03-16T22:21:28.430Z,100514.41
2023-03-16T22:23:56.508Z,100507.97
2023-03-16T22:26:24.528Z,100507.09
2023-03-16T22:28:55.107Z,100495.41
2023-03-16T22:31:27.618Z,100478.78
2023-03-16T22:33:55.626Z,100491.84
2023-03-16T22:36:23.693Z,100495.41
2023-03-16T22:38:55.750Z,100488.31
2023-03-16T22:41:23.922Z,100491.84
2023-03-16T22:43:51.914Z,100491.00
2023-03-16T22:46:23.398Z,100459.44
2023-03-16T22:48:52.179Z,100459.88
2023-03-16T22:51:23.658Z,100488.50
2023-03-16T22:53:51.829Z,100501.88
2023-03-16T22:56:20.162Z,100457.31
2023-03-16T22:58:49.295Z,100481.22
2023-03-16T23:01:18.321Z,100479.31
2023-03-16T23:03:48.355Z,100482.03
2023-03-16T23:06:17.521Z,100483.91
2023-03-16T23:08:45.542Z,100386.91
2023-03-16T23:11:15.799Z,100439.66
2023-03-16T23:13:44.009Z,100482.03
2023-03-16T23:16:18.444Z,100481.22
2023-03-16T23:18:48.154Z,100479.53
2023-03-16T23:21:16.499Z,100449.44
2023-03-16T23:23:48.303Z,100468.09
2023-03-16T23:26:25.946Z,100467.03
2023-03-16T23:28:55.723Z,100423.59
2023-03-16T23:31:23.637Z,100451.81
2023-03-16T23:33:52.913Z,100443.66
2023-03-16T23:36:21.973Z,100445.53
2023-03-16T23:38:50.306Z,100454.53
2023-03-16T23:41:19.179Z,100452.63
2023-03-16T23:43:47.080Z,100460.78
2023-03-16T23:46:15.639Z,100456.41
2023-03-16T23:48:44.262Z,100458.28
2023-03-16T23:51:16.262Z,100455.56
2023-03-16T23:53:44.170Z,100456.19
2023-03-16T23:56:12.278Z,100430.97
2023-03-16T23:58:40.173Z,100438.22
